Time;durP1;ratioP1;P1;durP2;ratioP2;P2;SDS_P1;SDS_P2;PMS_P1;PMS_P2;Temp;Humidity;BMP_temperature;BMP_pressure;BME280_temperature;BME280_humidity;BME280_pressure;Samples;Min_cycle;Max_cycle;Signal;HPM_P1;HPM_P2
2024/01/24 00:00:51;;;;;;;15.70;9.38;;;;;;;;;;5104491;28;20016;-49
2024/01/24 00:03:17;;;;;;;16.73;9.48;;;;;;;;;;5104498;28;20038;-49
2024/01/24 00:05:44;;;;;;;14.30;9.50;;;;;;;;;;5104413;28;20020;-48
2024/01/24 00:08:11;;;;;;;55.85;12.77;;;;;;;;;;5104743;28;20087;-52
2024/01/24 00:10:38;;;;;;;44.65;12.32;;;;;;;;;;5104399;28;20020;-49
2024/01/24 00:13:04;;;;;;;27.20;10.52;;;;;;;;;;5104531;28;20036;-49
2024/01/24 00:15:31;;;;;;;22.35;10.43;;;;;;;;;;5104321;28;20023;-49
2024/01/24 00:17:58;;;;;;;18.90;9.52;;;;;;;;;;5104575;28;20032;-52
2024/01/24 00:20:24;;;;;;;18.67;9.55;;;;;;;;;;5104038;28;20019;-48
2024/01/24 00:22:51;;;;;;;36.63;12.35;;;;;;;;;;5104312;28;20101;-54
2024/01/24 00:25:17;;;;;;;23.45;10.50;;;;;;;;;;5104138;28;20019;-49
2024/01/24 00:27:44;;;;;;;28.75;10.50;;;;;;;;;;5104083;28;20024;-54
2024/01/24 00:30:11;;;;;;;27.08;10.57;;;;;;;;;;5104268;28;20026;-46
2024/01/24 00:32:37;;;;;;;31.30;11.32;;;;;;;;;;5104419;28;20050;-52
2024/01/24 00:35:04;;;;;;;19.88;10.27;;;;;;;;;;5103887;28;20043;-52
2024/01/24 00:37:31;;;;;;;19.75;9.95;;;;;;;;;;5104274;28;20028;-50
2024/01/24 00:39:57;;;;;;;21.50;10.02;;;;;;;;;;5104259;28;20024;-53
2024/01/24 00:42:24;;;;;;;15.57;9.73;;;;;;;;;;5103760;28;20051;-53
2024/01/24 00:44:51;;;;;;;30.40;11.35;;;;;;;;;;5103928;28;20045;-49
2024/01/24 00:47:18;;;;;;;25.73;11.43;;;;;;;;;;5103974;28;20027;-50
2024/01/24 00:49:45;;;;;;;16.65;9.32;;;;;;;;;;5105750;28;20058;-50
2024/01/24 00:52:11;;;;;;;20.58;10.15;;;;;;;;;;5108215;28;20054;-47
2024/01/24 00:54:38;;;;;;;14.80;10.15;;;;;;;;;;5108140;28;20024;-50
2024/01/24 00:57:05;;;;;;;20.13;9.90;;;;;;;;;;5107832;28;20406;-50
2024/01/24 00:59:31;;;;;;;18.38;10.57;;;;;;;;;;5108054;28;20216;-53
2024/01/24 01:01:58;;;;;;;15.05;10.45;;;;;;;;;;5107846;28;20031;-53
2024/01/24 01:04:24;;;;;;;15.90;10.63;;;;;;;;;;5107714;28;20024;-51
2024/01/24 01:06:51;;;;;;;20.75;10.95;;;;;;;;;;5107835;28;20326;-53
2024/01/24 01:09:18;;;;;;;22.20;10.73;;;;;;;;;;5107896;28;20258;-51
2024/01/24 01:11:44;;;;;;;14.88;10.75;;;;;;;;;;5107585;28;20071;-48
2024/01/24 01:14:11;;;;;;;24.10;10.98;;;;;;;;;;5107805;28;20020;-51
2024/01/24 01:16:37;;;;;;;21.10;10.75;;;;;;;;;;5107588;28;20057;-49
2024/01/24 01:19:04;;;;;;;19.40;11.55;;;;;;;;;;5107640;28;20227;-52
2024/01/24 01:21:30;;;;;;;22.40;11.52;;;;;;;;;;5107764;28;20261;-51
2024/01/24 01:23:57;;;;;;;19.38;11.75;;;;;;;;;;5107967;28;20028;-53
2024/01/24 01:26:23;;;;;;;17.77;11.57;;;;;;;;;;5107531;28;20050;-52
2024/01/24 01:28:50;;;;;;;20.65;12.02;;;;;;;;;;5107782;28;20027;-52
2024/01/24 01:31:17;;;;;;;16.95;10.95;;;;;;;;;;5107502;28;20020;-52
2024/01/24 01:33:43;;;;;;;18.02;11.45;;;;;;;;;;5107667;28;20028;-48
2024/01/24 01:36:10;;;;;;;18.92;11.20;;;;;;;;;;5107121;28;20016;-59
2024/01/24 01:38:36;;;;;;;14.85;11.10;;;;;;;;;;5107725;28;20024;-56
2024/01/24 01:41:03;;;;;;;171.93;25.50;;;;;;;;;;5102015;28;20029;-58
2024/01/24 01:43:29;;;;;;;34.00;11.85;;;;;;;;;;5099405;28;20040;-60
2024/01/24 01:45:58;;;;;;;33.00;12.13;;;;;;;;;;5100457;28;20073;-58
2024/01/24 01:48:25;;;;;;;28.48;12.25;;;;;;;;;;5098559;28;20020;-54
2024/01/24 01:50:51;;;;;;;21.95;11.88;;;;;;;;;;5099502;28;20028;-60
2024/01/24 01:53:18;;;;;;;32.10;12.80;;;;;;;;;;5100955;28;20057;-65
2024/01/24 01:55:45;;;;;;;20.13;11.68;;;;;;;;;;5096276;28;20058;-64
2024/01/24 01:58:11;;;;;;;18.98;11.80;;;;;;;;;;5095570;28;20027;-60
2024/01/24 02:00:38;;;;;;;19.67;11.30;;;;;;;;;;5101272;28;20019;-65
2024/01/24 02:03:05;;;;;;;19.23;10.82;;;;;;;;;;5097598;28;20028;-59
2024/01/24 02:05:31;;;;;;;19.80;11.02;;;;;;;;;;5095485;28;20039;-64
2024/01/24 02:07:58;;;;;;;18.85;11.20;;;;;;;;;;5096045;28;20038;-60
2024/01/24 02:10:25;;;;;;;109.22;18.55;;;;;;;;;;5100469;28;20083;-61
2024/01/24 02:12:51;;;;;;;37.17;14.38;;;;;;;;;;5096941;28;20031;-66
2024/01/24 02:15:18;;;;;;;28.55;12.15;;;;;;;;;;5102944;28;20023;-62
2024/01/24 02:17:45;;;;;;;24.77;12.18;;;;;;;;;;5098386;28;20048;-57
2024/01/24 02:20:12;;;;;;;23.55;11.15;;;;;;;;;;5093457;28;20016;-64
2024/01/24 02:22:39;;;;;;;25.75;11.80;;;;;;;;;;5096647;28;20302;-61
2024/01/24 02:25:06;;;;;;;22.17;11.88;;;;;;;;;;5094176;28;20012;-60
2024/01/24 02:27:33;;;;;;;20.98;11.82;;;;;;;;;;5095727;28;20361;-56
2024/01/24 02:30:00;;;;;;;21.48;12.13;;;;;;;;;;5094997;28;20088;-62
2024/01/24 02:32:26;;;;;;;17.33;11.90;;;;;;;;;;5098405;28;20031;-61
2024/01/24 02:34:53;;;;;;;18.30;11.98;;;;;;;;;;5097501;28;20014;-63
2024/01/24 02:37:20;;;;;;;14.70;10.82;;;;;;;;;;5090876;28;20059;-59
2024/01/24 02:39:47;;;;;;;20.65;11.77;;;;;;;;;;5098271;28;20024;-62
2024/01/24 02:42:14;;;;;;;24.17;11.30;;;;;;;;;;5096690;28;20062;-59
2024/01/24 02:44:40;;;;;;;15.90;11.00;;;;;;;;;;5098169;28;20266;-65
2024/01/24 02:47:07;;;;;;;14.40;10.75;;;;;;;;;;5097459;28;20241;-64
2024/01/24 02:49:33;;;;;;;17.23;10.93;;;;;;;;;;5098064;28;20022;-61
2024/01/24 02:52:02;;;;;;;16.20;10.75;;;;;;;;;;5099451;28;20265;-62
2024/01/24 02:54:28;;;;;;;15.40;10.55;;;;;;;;;;5096032;28;20043;-63
2024/01/24 02:56:55;;;;;;;13.20;10.80;;;;;;;;;;5094922;28;20345;-60
2024/01/24 02:59:21;;;;;;;15.85;13.23;;;;;;;;;;5095018;28;20040;-62
2024/01/24 03:01:48;;;;;;;14.65;11.07;;;;;;;;;;5098063;28;20231;-60
2024/01/24 03:04:14;;;;;;;19.73;12.95;;;;;;;;;;5098662;28;20183;-66
2024/01/24 03:06:41;;;;;;;14.65;12.65;;;;;;;;;;5094465;28;20075;-61
2024/01/24 03:09:08;;;;;;;12.73;11.38;;;;;;;;;;5093864;28;20070;-63
2024/01/24 03:11:34;;;;;;;14.38;11.40;;;;;;;;;;5092746;28;20058;-65
2024/01/24 03:14:01;;;;;;;12.48;11.15;;;;;;;;;;5095249;28;20024;-63
2024/01/24 03:16:27;;;;;;;12.43;10.85;;;;;;;;;;5096161;28;20016;-62
2024/01/24 03:18:54;;;;;;;12.63;10.63;;;;;;;;;;5094856;28;20020;-61
2024/01/24 03:21:20;;;;;;;13.40;10.50;;;;;;;;;;5095103;28;20075;-60
2024/01/24 03:23:47;;;;;;;16.92;11.18;;;;;;;;;;5093790;28;20104;-60
2024/01/24 03:26:15;;;;;;;16.50;10.88;;;;;;;;;;5094647;28;20039;-62
2024/01/24 03:28:42;;;;;;;15.57;11.13;;;;;;;;;;5095367;28;20231;-62
2024/01/24 03:31:09;;;;;;;15.52;10.85;;;;;;;;;;5093285;28;20017;-63
2024/01/24 03:33:38;;;;;;;19.27;12.98;;;;;;;;;;5094325;28;20024;-65
2024/01/24 03:36:05;;;;;;;13.70;11.05;;;;;;;;;;5094799;28;20020;-64
2024/01/24 03:38:33;;;;;;;14.38;10.93;;;;;;;;;;5093951;28;20033;-63
2024/01/24 03:40:59;;;;;;;15.43;10.95;;;;;;;;;;5093807;28;20019;-62
2024/01/24 03:43:26;;;;;;;15.15;10.85;;;;;;;;;;5094857;28;20358;-66
2024/01/24 03:45:53;;;;;;;15.10;10.10;;;;;;;;;;5093480;28;20100;-62
2024/01/24 03:48:19;;;;;;;12.65;10.27;;;;;;;;;;5096045;28;20028;-62
2024/01/24 03:50:46;;;;;;;10.73;9.50;;;;;;;;;;5092798;28;20019;-63
2024/01/24 03:53:15;;;;;;;11.15;9.85;;;;;;;;;;5094865;28;20032;-65
2024/01/24 03:55:42;;;;;;;12.63;9.68;;;;;;;;;;5094980;28;20027;-63
2024/01/24 03:58:08;;;;;;;12.85;9.63;;;;;;;;;;5100831;28;20031;-62
2024/01/24 04:00:35;;;;;;;11.75;9.82;;;;;;;;;;5095615;28;20304;-61
2024/01/24 04:03:01;;;;;;;13.85;10.70;;;;;;;;;;5092928;28;20054;-59
2024/01/24 04:05:28;;;;;;;11.20;9.70;;;;;;;;;;5094682;28;20012;-60
2024/01/24 04:07:55;;;;;;;11.52;9.52;;;;;;;;;;5093780;28;20044;-60
2024/01/24 04:10:21;;;;;;;11.25;10.00;;;;;;;;;;5093102;28;20016;-58
2024/01/24 04:12:48;;;;;;;11.23;9.63;;;;;;;;;;5094681;28;20035;-59
2024/01/24 04:15:15;;;;;;;10.93;9.73;;;;;;;;;;5093393;28;20009;-59
2024/01/24 04:17:41;;;;;;;12.50;9.98;;;;;;;;;;5093127;28;20027;-63
2024/01/24 04:20:08;;;;;;;10.77;9.45;;;;;;;;;;5094537;28;20016;-62
2024/01/24 04:22:35;;;;;;;11.70;10.40;;;;;;;;;;5093429;28;20024;-63
2024/01/24 04:25:02;;;;;;;10.85;9.23;;;;;;;;;;5093917;28;20073;-61
2024/01/24 04:27:29;;;;;;;12.00;9.68;;;;;;;;;;5092433;28;20048;-62
2024/01/24 04:29:55;;;;;;;11.45;10.32;;;;;;;;;;5093957;28;20207;-61
2024/01/24 04:32:22;;;;;;;11.40;9.98;;;;;;;;;;5093380;28;20321;-66
2024/01/24 04:34:51;;;;;;;11.63;10.52;;;;;;;;;;5091564;28;20029;-63
2024/01/24 04:37:18;;;;;;;11.85;10.65;;;;;;;;;;5093349;28;20035;-63
2024/01/24 04:39:44;;;;;;;12.63;11.38;;;;;;;;;;5094196;28;20028;-65
2024/01/24 04:42:11;;;;;;;16.58;12.20;;;;;;;;;;5091996;28;20028;-65
2024/01/24 04:44:38;;;;;;;14.82;12.15;;;;;;;;;;5093134;28;20545;-62
2024/01/24 04:47:06;;;;;;;14.73;12.50;;;;;;;;;;5094112;28;20040;-66
2024/01/24 04:49:33;;;;;;;14.10;12.70;;;;;;;;;;5092809;28;20028;-63
2024/01/24 04:52:00;;;;;;;14.18;12.70;;;;;;;;;;5092791;28;20039;-68
2024/01/24 04:54:27;;;;;;;13.48;12.00;;;;;;;;;;5094216;28;20268;-62
2024/01/24 04:56:53;;;;;;;14.00;12.60;;;;;;;;;;5092684;28;20029;-61
2024/01/24 04:59:20;;;;;;;13.45;12.05;;;;;;;;;;5093186;28;20106;-61
2024/01/24 05:01:47;;;;;;;14.35;12.18;;;;;;;;;;5088744;28;20036;-60
2024/01/24 05:04:14;;;;;;;13.32;11.95;;;;;;;;;;5091703;28;20024;-62
2024/01/24 05:06:40;;;;;;;14.23;12.07;;;;;;;;;;5090669;28;20015;-64
2024/01/24 05:09:07;;;;;;;13.70;11.70;;;;;;;;;;5093101;28;20402;-60
2024/01/24 05:11:34;;;;;;;13.65;11.70;;;;;;;;;;5092092;28;20027;-60
2024/01/24 05:14:00;;;;;;;13.57;11.77;;;;;;;;;;5092358;28;20031;-58
2024/01/24 05:16:29;;;;;;;12.57;11.27;;;;;;;;;;5094052;28;20023;-60
2024/01/24 05:18:56;;;;;;;13.80;11.45;;;;;;;;;;5092279;28;20024;-62
2024/01/24 05:21:23;;;;;;;18.85;11.63;;;;;;;;;;5090925;28;20012;-58
2024/01/24 05:23:52;;;;;;;12.80;10.93;;;;;;;;;;5094148;28;20032;-64
2024/01/24 05:26:18;;;;;;;12.95;10.82;;;;;;;;;;5094568;28;20009;-56
2024/01/24 05:28:45;;;;;;;13.35;10.43;;;;;;;;;;5092122;28;20217;-61
2024/01/24 05:31:12;;;;;;;12.95;10.70;;;;;;;;;;5093713;28;20016;-58
2024/01/24 05:33:39;;;;;;;12.07;10.63;;;;;;;;;;5092916;28;20031;-57
2024/01/24 05:36:06;;;;;;;14.48;10.43;;;;;;;;;;5092528;28;20016;-58
2024/01/24 05:38:33;;;;;;;13.95;10.95;;;;;;;;;;5097695;28;20185;-57
2024/01/24 05:40:59;;;;;;;12.38;10.93;;;;;;;;;;5096741;28;20040;-57
2024/01/24 05:43:26;;;;;;;11.90;10.70;;;;;;;;;;5094997;28;20044;-62
2024/01/24 05:45:52;;;;;;;12.45;11.07;;;;;;;;;;5097140;28;20032;-57
2024/01/24 05:48:19;;;;;;;11.90;10.13;;;;;;;;;;5096326;28;20028;-62
2024/01/24 05:50:46;;;;;;;13.48;10.45;;;;;;;;;;5095134;28;20013;-62
2024/01/24 05:53:13;;;;;;;11.82;10.63;;;;;;;;;;5097652;28;20227;-59
2024/01/24 05:55:39;;;;;;;11.35;10.25;;;;;;;;;;5100199;28;20040;-57
2024/01/24 05:58:06;;;;;;;14.88;11.02;;;;;;;;;;5095224;28;20025;-58
2024/01/24 06:00:32;;;;;;;11.57;10.48;;;;;;;;;;5096833;28;20208;-61
2024/01/24 06:02:59;;;;;;;12.20;11.00;;;;;;;;;;5096587;28;20025;-64
2024/01/24 06:05:25;;;;;;;12.73;11.43;;;;;;;;;;5094826;28;20032;-63
2024/01/24 06:07:52;;;;;;;14.50;11.25;;;;;;;;;;5097006;28;20019;-65
2024/01/24 06:10:20;;;;;;;13.02;11.32;;;;;;;;;;5096200;28;20020;-64
2024/01/24 06:12:46;;;;;;;12.48;11.20;;;;;;;;;;5094584;28;20034;-62
2024/01/24 06:15:13;;;;;;;12.98;11.23;;;;;;;;;;5096813;28;20020;-66
2024/01/24 06:17:39;;;;;;;12.93;11.10;;;;;;;;;;5096257;28;20308;-62
2024/01/24 06:20:06;;;;;;;13.02;11.63;;;;;;;;;;5094630;28;20271;-59
2024/01/24 06:22:33;;;;;;;13.48;11.98;;;;;;;;;;5096457;28;20115;-65
2024/01/24 06:25:02;;;;;;;16.48;11.18;;;;;;;;;;5095896;28;20016;-64
2024/01/24 06:27:29;;;;;;;12.60;11.30;;;;;;;;;;5094753;28;20025;-65
2024/01/24 06:29:56;;;;;;;12.95;11.35;;;;;;;;;;5095937;28;20362;-64
2024/01/24 06:32:22;;;;;;;13.57;11.50;;;;;;;;;;5096440;28;20032;-62
2024/01/24 06:34:49;;;;;;;13.07;11.40;;;;;;;;;;5094337;28;20095;-62
2024/01/24 06:37:16;;;;;;;13.02;11.45;;;;;;;;;;5095795;28;20031;-63
2024/01/24 06:39:42;;;;;;;13.32;11.85;;;;;;;;;;5096110;28;20024;-53
2024/01/24 06:42:10;;;;;;;13.20;11.88;;;;;;;;;;5094294;28;20087;-56
2024/01/24 06:44:37;;;;;;;14.20;11.63;;;;;;;;;;5095328;28;20101;-60
2024/01/24 06:47:03;;;;;;;14.60;11.35;;;;;;;;;;5095923;28;20027;-63
2024/01/24 06:49:30;;;;;;;12.80;11.50;;;;;;;;;;5094129;28;20017;-60
2024/01/24 06:51:57;;;;;;;13.82;11.57;;;;;;;;;;5095195;28;20015;-62
2024/01/24 06:54:27;;;;;;;14.32;11.63;;;;;;;;;;5095934;28;20020;-63
2024/01/24 06:56:53;;;;;;;12.80;11.48;;;;;;;;;;5094478;28;20272;-62
2024/01/24 06:59:20;;;;;;;12.95;11.57;;;;;;;;;;5094680;28;20091;-59
2024/01/24 07:01:47;;;;;;;12.65;11.35;;;;;;;;;;5096225;28;20185;-54
2024/01/24 07:04:13;;;;;;;16.08;11.43;;;;;;;;;;5094191;28;20078;-59
2024/01/24 07:06:40;;;;;;;12.48;11.10;;;;;;;;;;5094418;28;20038;-64
2024/01/24 07:09:06;;;;;;;12.93;10.77;;;;;;;;;;5095821;28;20016;-65
2024/01/24 07:11:33;;;;;;;14.90;11.10;;;;;;;;;;5097496;28;20016;-63
2024/01/24 07:13:59;;;;;;;12.27;10.98;;;;;;;;;;5102458;28;20043;-60
2024/01/24 07:16:26;;;;;;;11.85;10.63;;;;;;;;;;5104690;28;20016;-61
2024/01/24 07:18:53;;;;;;;15.55;11.55;;;;;;;;;;5105837;28;20035;-62
2024/01/24 07:21:19;;;;;;;13.32;11.35;;;;;;;;;;5105477;28;20367;-61
2024/01/24 07:23:46;;;;;;;12.95;11.15;;;;;;;;;;5105900;28;20365;-61
2024/01/24 07:26:12;;;;;;;14.73;11.57;;;;;;;;;;5105234;28;20054;-61
2024/01/24 07:28:39;;;;;;;12.90;10.73;;;;;;;;;;5105526;28;20047;-61
2024/01/24 07:31:06;;;;;;;12.65;10.77;;;;;;;;;;5105305;28;20016;-61
2024/01/24 07:33:33;;;;;;;12.50;10.82;;;;;;;;;;5105464;28;20039;-61
2024/01/24 07:36:00;;;;;;;14.73;10.43;;;;;;;;;;5104960;28;20235;-61
2024/01/24 07:38:26;;;;;;;12.38;11.18;;;;;;;;;;5105519;28;20326;-61
2024/01/24 07:40:53;;;;;;;13.65;10.60;;;;;;;;;;5105008;28;20020;-62
2024/01/24 07:43:21;;;;;;;12.32;10.52;;;;;;;;;;5104676;28;20055;-61
2024/01/24 07:45:48;;;;;;;11.50;10.30;;;;;;;;;;5104883;28;20031;-61
2024/01/24 07:48:15;;;;;;;13.50;10.73;;;;;;;;;;5104352;28;20020;-59
2024/01/24 07:50:42;;;;;;;13.18;10.65;;;;;;;;;;5103528;28;20024;-60
2024/01/24 07:53:09;;;;;;;13.32;10.60;;;;;;;;;;5105042;28;20130;-62
2024/01/24 07:55:36;;;;;;;11.68;10.48;;;;;;;;;;5104803;28;20055;-60
2024/01/24 07:58:03;;;;;;;11.90;10.52;;;;;;;;;;5104840;28;20168;-60
2024/01/24 08:00:31;;;;;;;11.82;10.57;;;;;;;;;;5104011;28;20134;-60
2024/01/24 08:03:00;;;;;;;12.05;10.70;;;;;;;;;;5104493;28;20044;-61
2024/01/24 08:05:29;;;;;;;11.60;9.88;;;;;;;;;;5104697;28;20020;-60
2024/01/24 08:07:56;;;;;;;12.30;10.63;;;;;;;;;;5104700;28;20020;-61
2024/01/24 08:10:23;;;;;;;10.93;9.82;;;;;;;;;;5104592;28;20312;-61
2024/01/24 08:12:50;;;;;;;13.07;10.35;;;;;;;;;;5104474;28;20047;-61
2024/01/24 08:15:17;;;;;;;13.10;10.70;;;;;;;;;;5104338;28;20031;-61
2024/01/24 08:17:44;;;;;;;11.70;10.07;;;;;;;;;;5104527;28;20356;-60
2024/01/24 08:20:11;;;;;;;11.95;9.82;;;;;;;;;;5104170;28;20024;-60
2024/01/24 08:22:38;;;;;;;11.55;10.10;;;;;;;;;;5104549;28;20027;-60
2024/01/24 08:25:04;;;;;;;12.63;9.73;;;;;;;;;;5104315;28;20216;-60
2024/01/24 08:27:31;;;;;;;11.43;9.45;;;;;;;;;;5104371;28;20282;-60
2024/01/24 08:29:59;;;;;;;11.10;9.27;;;;;;;;;;5104153;28;20066;-60
2024/01/24 08:32:26;;;;;;;10.48;9.05;;;;;;;;;;5104101;28;20043;-60
2024/01/24 08:34:52;;;;;;;12.13;9.77;;;;;;;;;;5103943;28;20024;-62
2024/01/24 08:37:19;;;;;;;11.13;9.27;;;;;;;;;;5104159;28;20024;-62
2024/01/24 08:39:45;;;;;;;10.60;8.93;;;;;;;;;;5104144;28;20035;-60
2024/01/24 08:42:12;;;;;;;10.40;9.32;;;;;;;;;;5103860;28;20027;-59
2024/01/24 08:44:38;;;;;;;11.10;9.20;;;;;;;;;;5104075;28;20031;-61
2024/01/24 08:47:05;;;;;;;12.00;9.60;;;;;;;;;;5104018;28;20024;-60
2024/01/24 08:49:32;;;;;;;9.82;8.82;;;;;;;;;;5103953;28;20058;-61
2024/01/24 08:51:59;;;;;;;12.18;9.23;;;;;;;;;;5104015;28;21013;-61
2024/01/24 08:54:25;;;;;;;10.80;9.38;;;;;;;;;;5104018;28;20043;-61
2024/01/24 08:56:52;;;;;;;9.73;8.73;;;;;;;;;;5103928;28;20023;-60
2024/01/24 08:59:19;;;;;;;10.20;9.05;;;;;;;;;;5103769;28;20102;-61
2024/01/24 09:01:46;;;;;;;10.35;8.82;;;;;;;;;;5103753;28;20091;-61
2024/01/24 09:04:14;;;;;;;10.20;8.90;;;;;;;;;;5103721;28;20024;-61
2024/01/24 09:06:42;;;;;;;11.48;8.82;;;;;;;;;;5103594;28;20021;-61
2024/01/24 09:09:12;;;;;;;9.48;8.45;;;;;;;;;;5103785;28;20035;-61
2024/01/24 09:11:41;;;;;;;11.40;9.18;;;;;;;;;;5106967;28;20043;-60
2024/01/24 09:14:07;;;;;;;10.63;9.10;;;;;;;;;;5107765;28;20028;-60
2024/01/24 09:16:34;;;;;;;10.73;8.57;;;;;;;;;;5107445;28;20024;-61
2024/01/24 09:19:01;;;;;;;10.02;8.32;;;;;;;;;;5108090;28;20028;-57
2024/01/24 09:21:27;;;;;;;11.13;9.32;;;;;;;;;;5107649;28;20032;-60
2024/01/24 09:23:54;;;;;;;10.30;8.77;;;;;;;;;;5108046;28;20095;-61
2024/01/24 09:26:20;;;;;;;9.93;8.93;;;;;;;;;;5107806;28;20258;-60
2024/01/24 09:28:47;;;;;;;10.82;8.93;;;;;;;;;;5107848;28;20095;-61
2024/01/24 09:31:15;;;;;;;10.35;8.95;;;;;;;;;;5107451;28;20208;-61
2024/01/24 09:33:41;;;;;;;9.90;8.18;;;;;;;;;;5107348;28;20336;-60
2024/01/24 09:36:08;;;;;;;9.57;8.68;;;;;;;;;;5107257;28;20311;-60
2024/01/24 09:38:34;;;;;;;12.77;9.23;;;;;;;;;;5107816;28;20343;-62
2024/01/24 09:41:04;;;;;;;9.80;8.27;;;;;;;;;;5107262;28;20047;-60
2024/01/24 09:43:33;;;;;;;10.27;8.93;;;;;;;;;;5106956;28;20044;-60
2024/01/24 09:46:01;;;;;;;11.57;7.97;;;;;;;;;;5107196;28;20020;-61
2024/01/24 09:48:28;;;;;;;10.77;8.43;;;;;;;;;;5107533;28;20043;-61
2024/01/24 09:50:55;;;;;;;11.85;8.65;;;;;;;;;;5107123;28;20024;-61
2024/01/24 09:53:22;;;;;;;10.10;8.13;;;;;;;;;;5107104;28;20032;-61
2024/01/24 09:55:49;;;;;;;10.50;8.50;;;;;;;;;;5106949;28;20016;-61
2024/01/24 09:58:16;;;;;;;10.80;8.18;;;;;;;;;;5107253;28;20036;-60
2024/01/24 10:00:44;;;;;;;10.07;7.95;;;;;;;;;;5107177;28;20024;-61
2024/01/24 10:03:11;;;;;;;10.00;7.63;;;;;;;;;;5107084;28;20028;-60
2024/01/24 10:05:38;;;;;;;10.05;7.68;;;;;;;;;;5106697;28;20031;-60
2024/01/24 10:08:05;;;;;;;11.38;8.35;;;;;;;;;;5107131;28;20040;-61
2024/01/24 10:10:31;;;;;;;11.75;8.77;;;;;;;;;;5106808;28;20243;-61
2024/01/24 10:13:00;;;;;;;10.70;8.07;;;;;;;;;;5106850;28;20300;-61
2024/01/24 10:15:27;;;;;;;9.90;8.07;;;;;;;;;;5106610;28;20090;-60
2024/01/24 10:17:56;;;;;;;12.25;8.05;;;;;;;;;;5106491;28;20087;-61
2024/01/24 10:20:22;;;;;;;9.88;7.63;;;;;;;;;;5106509;28;20083;-61
2024/01/24 10:22:50;;;;;;;10.32;7.40;;;;;;;;;;5106102;28;20086;-61
2024/01/24 10:25:17;;;;;;;11.27;7.47;;;;;;;;;;5106443;28;20317;-60
2024/01/24 10:27:44;;;;;;;11.25;7.10;;;;;;;;;;5106598;28;20331;-60
2024/01/24 10:30:11;;;;;;;11.55;7.65;;;;;;;;;;5106331;28;20026;-60
2024/01/24 10:32:38;;;;;;;8.30;7.20;;;;;;;;;;5106754;28;20028;-60
2024/01/24 10:35:05;;;;;;;8.73;7.13;;;;;;;;;;5106047;28;20016;-60
2024/01/24 10:37:32;;;;;;;7.65;6.85;;;;;;;;;;5106501;28;20199;-60
2024/01/24 10:40:04;;;;;;;8.43;6.63;;;;;;;;;;5106089;28;20130;-61
2024/01/24 10:42:30;;;;;;;;;;;;;;;;;;5106406;28;20042;-60
2024/01/24 10:44:58;;;;;;;10.73;7.38;;;;;;;;;;5106039;28;19904;-61
2024/01/24 10:47:25;;;;;;;10.02;6.90;;;;;;;;;;5106159;28;20024;-61
2024/01/24 10:49:51;;;;;;;10.95;7.43;;;;;;;;;;5105156;28;20028;-61
2024/01/24 10:52:18;;;;;;;10.93;7.60;;;;;;;;;;5085824;28;20208;-62
2024/01/24 10:54:45;;;;;;;12.65;7.57;;;;;;;;;;5093983;28;20016;-63
2024/01/24 10:57:14;;;;;;;14.18;7.38;;;;;;;;;;5105826;28;20054;-63
2024/01/24 10:59:42;;;;;;;13.68;6.93;;;;;;;;;;5105744;28;20024;-63
2024/01/24 11:02:10;;;;;;;13.27;7.25;;;;;;;;;;5105758;28;20032;-63
2024/01/24 11:04:36;;;;;;;15.02;7.30;;;;;;;;;;5105604;28;20346;-61
2024/01/24 11:07:12;;;;;;;13.57;6.78;;;;;;;;;;5105230;28;20024;-59
2024/01/24 11:09:55;;;;;;;15.13;7.35;;;;;;;;;;5105068;28;20053;-59
2024/01/24 11:12:22;;;;;;;11.60;7.10;;;;;;;;;;5098742;28;20200;-59
2024/01/24 11:14:49;;;;;;;24.13;7.40;;;;;;;;;;5093413;28;20089;-60
2024/01/24 11:17:15;;;;;;;15.52;6.75;;;;;;;;;;5085273;28;20351;-60
2024/01/24 11:19:42;;;;;;;16.95;7.05;;;;;;;;;;5085152;28;20027;-60
2024/01/24 11:22:12;;;;;;;11.48;6.75;;;;;;;;;;5084956;28;20339;-62
2024/01/24 11:24:46;;;;;;;13.68;6.65;;;;;;;;;;5084999;28;20032;-59
2024/01/24 11:27:34;;;;;;;13.43;6.43;;;;;;;;;;5096642;28;20028;-60
2024/01/24 11:30:02;;;;;;;12.05;6.68;;;;;;;;;;5093955;28;20016;-61
2024/01/24 11:32:47;;;;;;;11.68;6.68;;;;;;;;;;5095330;28;20021;-64
2024/01/24 11:35:32;;;;;;;8.95;6.60;;;;;;;;;;5084161;28;20040;-61
2024/01/24 11:38:26;;;;;;;10.68;6.97;;;;;;;;;;5094645;28;20024;-60
2024/01/24 11:40:56;;;;;;;10.82;6.28;;;;;;;;;;5086689;28;20020;-60
2024/01/24 11:43:27;;;;;;;10.50;6.70;;;;;;;;;;5095222;28;20044;-60
2024/01/24 11:45:58;;;;;;;12.52;6.30;;;;;;;;;;5094449;28;20312;-63
2024/01/24 11:48:26;;;;;;;18.38;7.07;;;;;;;;;;5095490;28;20035;-60
2024/01/24 11:51:03;;;;;;;16.88;7.20;;;;;;;;;;5098799;28;20077;-60
2024/01/24 11:53:30;;;;;;;13.82;7.20;;;;;;;;;;5102010;28;20026;-60
2024/01/24 11:55:58;;;;;;;16.98;7.78;;;;;;;;;;5104140;28;20012;-60
2024/01/24 11:58:28;;;;;;;20.05;7.93;;;;;;;;;;5104640;28;20020;-61
2024/01/24 12:00:55;;;;;;;18.75;8.98;;;;;;;;;;5103128;28;20027;-60
2024/01/24 12:03:22;;;;;;;14.27;7.85;;;;;;;;;;5089265;28;20306;-59
2024/01/24 12:05:49;;;;;;;18.65;7.72;;;;;;;;;;5101882;28;20023;-62
2024/01/24 12:08:15;;;;;;;21.52;8.13;;;;;;;;;;5098486;28;20086;-61
2024/01/24 12:10:42;;;;;;;19.23;7.40;;;;;;;;;;5088978;28;20024;-59
2024/01/24 12:13:09;;;;;;;16.35;6.78;;;;;;;;;;5083065;28;20027;-60
2024/01/24 12:15:35;;;;;;;16.08;7.22;;;;;;;;;;5082633;28;20040;-62
2024/01/24 12:18:04;;;;;;;16.80;6.93;;;;;;;;;;5083874;28;20028;-62
2024/01/24 12:20:31;;;;;;;15.85;6.82;;;;;;;;;;5082833;28;20024;-64
2024/01/24 12:22:57;;;;;;;19.13;7.60;;;;;;;;;;5087349;28;20039;-64
2024/01/24 12:25:24;;;;;;;15.23;7.15;;;;;;;;;;5092809;28;20023;-63
2024/01/24 12:27:51;;;;;;;17.50;7.13;;;;;;;;;;5083622;28;20032;-62
2024/01/24 12:30:18;;;;;;;14.50;6.95;;;;;;;;;;5083943;28;20017;-65
2024/01/24 12:32:45;;;;;;;19.70;7.10;;;;;;;;;;5083896;28;20031;-61
2024/01/24 12:35:14;;;;;;;13.48;6.85;;;;;;;;;;5084032;28;20028;-64
2024/01/24 12:37:43;;;;;;;13.85;6.63;;;;;;;;;;5084084;28;20088;-66
2024/01/24 12:40:11;;;;;;;14.43;6.22;;;;;;;;;;5083802;28;20016;-66
2024/01/24 12:42:41;;;;;;;18.42;6.15;;;;;;;;;;5083842;28;20287;-66
2024/01/24 12:45:14;;;;;;;12.60;5.55;;;;;;;;;;5083547;28;20012;-65
2024/01/24 12:47:42;;;;;;;14.18;5.60;;;;;;;;;;5083576;28;20084;-68
2024/01/24 12:50:12;;;;;;;15.48;5.85;;;;;;;;;;5083799;28;20119;-58
2024/01/24 12:52:39;;;;;;;9.88;4.72;;;;;;;;;;5086349;28;20220;-59
2024/01/24 12:55:06;;;;;;;12.68;5.00;;;;;;;;;;5092218;28;20051;-59
2024/01/24 12:57:33;;;;;;;12.02;4.57;;;;;;;;;;5083877;28;20208;-60
2024/01/24 13:00:00;;;;;;;7.72;4.45;;;;;;;;;;5083676;28;20036;-60
2024/01/24 13:02:27;;;;;;;7.03;4.47;;;;;;;;;;5083711;28;20044;-58
2024/01/24 13:04:54;;;;;;;6.65;3.83;;;;;;;;;;5083632;28;20021;-63
2024/01/24 13:07:20;;;;;;;7.35;3.80;;;;;;;;;;5083675;28;20031;-67
2024/01/24 13:09:47;;;;;;;8.50;4.00;;;;;;;;;;5083534;28;20027;-65
2024/01/24 13:12:13;;;;;;;10.48;4.15;;;;;;;;;;5083761;28;20028;-66
2024/01/24 13:14:40;;;;;;;9.50;3.97;;;;;;;;;;5083557;28;20028;-65
2024/01/24 13:17:08;;;;;;;6.18;4.05;;;;;;;;;;5083669;28;20060;-64
2024/01/24 13:19:35;;;;;;;5.90;3.55;;;;;;;;;;5083791;28;20024;-59
2024/01/24 13:22:02;;;;;;;6.63;3.90;;;;;;;;;;5083483;28;20088;-60
2024/01/24 13:24:28;;;;;;;7.85;3.97;;;;;;;;;;5087914;28;20028;-63
2024/01/24 13:26:56;;;;;;;7.63;3.65;;;;;;;;;;5103644;28;20308;-59
2024/01/24 13:29:24;;;;;;;8.95;4.30;;;;;;;;;;5103562;28;20039;-59
2024/01/24 13:31:50;;;;;;;5.75;3.63;;;;;;;;;;5103361;28;20019;-60
2024/01/24 13:34:17;;;;;;;5.65;3.97;;;;;;;;;;5103617;28;20016;-61
2024/01/24 13:36:47;;;;;;;6.60;3.75;;;;;;;;;;5103623;28;20126;-57
2024/01/24 13:39:14;;;;;;;7.65;4.00;;;;;;;;;;5103437;28;20072;-58
2024/01/24 13:41:43;;;;;;;8.07;3.92;;;;;;;;;;5103509;28;20012;-59
2024/01/24 13:44:16;;;;;;;9.02;3.90;;;;;;;;;;5103490;28;20044;-59
2024/01/24 13:46:43;;;;;;;8.38;3.88;;;;;;;;;;5103401;28;20048;-58
2024/01/24 13:49:10;;;;;;;7.10;4.07;;;;;;;;;;5103534;28;20083;-60
2024/01/24 13:51:37;;;;;;;5.60;3.75;;;;;;;;;;5103295;28;20020;-59
2024/01/24 13:54:04;;;;;;;7.05;3.83;;;;;;;;;;5103635;28;20099;-60
2024/01/24 13:56:31;;;;;;;11.75;4.00;;;;;;;;;;5103405;28;20019;-60
2024/01/24 13:58:57;;;;;;;8.10;3.67;;;;;;;;;;5107267;28;20024;-62
2024/01/24 14:01:24;;;;;;;7.13;3.78;;;;;;;;;;5107271;28;20035;-61
2024/01/24 14:03:51;;;;;;;8.10;3.95;;;;;;;;;;5107286;28;20083;-60
2024/01/24 14:06:19;;;;;;;5.68;3.75;;;;;;;;;;5106838;28;20016;-60
2024/01/24 14:08:46;;;;;;;7.30;3.58;;;;;;;;;;5107287;28;20042;-58
2024/01/24 14:11:13;;;;;;;6.40;4.07;;;;;;;;;;5100554;28;20253;-61
2024/01/24 14:13:40;;;;;;;6.88;3.78;;;;;;;;;;5089585;28;20035;-60
2024/01/24 14:16:07;;;;;;;5.95;3.83;;;;;;;;;;5099632;28;20043;-60
2024/01/24 14:18:34;;;;;;;6.03;3.53;;;;;;;;;;5107234;28;20052;-60
2024/01/24 14:21:01;;;;;;;5.70;3.63;;;;;;;;;;5106549;28;20024;-59
2024/01/24 14:23:27;;;;;;;6.10;4.20;;;;;;;;;;5106765;28;20038;-60
2024/01/24 14:25:54;;;;;;;5.47;3.70;;;;;;;;;;5106500;28;20020;-61